Time,TemperatureF,DewpointF,PressureIn,WindDirection,WindDirectionDegrees,WindSpeedMPH,WindSpeedGustMPH,Humidity,HourlyPrecipIn,Conditions,Clouds,dailyrainin,SoftwareType,DateUTC
2013-09-28 00:02:00,52.2,41.9,29.98,SE,134,0.0,0.9,68,0.00,,,0.00,meteobridge,2013-09-28 07:02:00,
2013-09-28 00:07:00,52.2,41.9,29.98,SE,134,0.0,0.0,68,0.00,,,0.00,meteobridge,2013-09-28 07:07:00,
2013-09-28 00:12:00,52.2,41.9,29.98,SE,134,0.0,0.9,68,0.00,,,0.00,meteobridge,2013-09-28 07:12:00,
2013-09-28 00:17:00,52.2,41.9,29.98,SE,135,0.0,0.9,68,0.00,,,0.00,meteobridge,2013-09-28 07:17:00,
2013-09-28 00:22:00,51.8,41.5,29.98,SE,134,0.0,0.0,68,0.00,,,0.00,meteobridge,2013-09-28 07:22:00,
2013-09-28 00:27:00,51.3,41.9,29.98,SE,134,0.0,0.0,70,0.00,,,0.00,meteobridge,2013-09-28 07:27:00,
2013-09-28 00:33:00,51.1,41.7,29.98,SE,134,0.0,0.0,70,0.00,,,0.00,meteobridge,2013-09-28 07:33:00,
2013-09-28 00:38:00,51.1,42.1,29.97,SE,134,0.9,0.9,71,0.00,,,0.00,meteobridge,2013-09-28 07:38:00,
2013-09-28 00:43:00,51.3,42.3,29.97,SE,134,0.9,0.9,71,0.00,,,0.00,meteobridge,2013-09-28 07:43:00,
2013-09-28 00:48:00,51.1,41.7,29.97,SE,134,0.0,0.0,70,0.00,,,0.00,meteobridge,2013-09-28 07:48:00,
2013-09-28 00:53:00,50.5,41.2,29.97,SE,134,0.0,0.0,70,0.00,,,0.00,meteobridge,2013-09-28 07:53:00,
2013-09-28 00:59:00,50.7,41.7,29.97,SE,134,0.0,0.9,71,0.00,,,0.00,meteobridge,2013-09-28 07:59:00,
2013-09-28 01:04:00,50.7,41.7,29.97,SE,134,0.0,0.0,71,0.00,,,0.00,meteobridge,2013-09-28 08:04:00,
2013-09-28 01:09:00,50.7,41.7,29.98,SE,134,0.0,0.0,71,0.00,,,0.00,meteobridge,2013-09-28 08:09:00,
2013-09-28 01:14:00,50.5,41.5,29.98,SE,135,0.0,0.0,71,0.00,,,0.00,meteobridge,2013-09-28 08:14:00,
2013-09-28 01:19:00,50.4,42.1,29.98,SE,134,0.0,0.0,73,0.00,,,0.00,meteobridge,2013-09-28 08:19:00,
2013-09-28 01:24:00,50.4,42.1,29.97,SE,134,0.0,0.0,73,0.00,,,0.00,meteobridge,2013-09-28 08:24:00,
2013-09-28 01:30:00,50.2,41.9,29.97,SE,134,0.0,0.0,73,0.00,,,0.00,meteobridge,2013-09-28 08:30:00,
2013-09-28 01:35:00,49.8,41.5,29.97,SE,134,0.0,0.0,73,0.00,,,0.00,meteobridge,2013-09-28 08:35:00,
2013-09-28 01:40:00,49.8,41.9,29.98,SE,132,0.9,0.9,74,0.00,,,0.00,meteobridge,2013-09-28 08:40:00,
2013-09-28 01:45:00,50.2,41.9,29.98,SE,126,0.0,0.9,73,0.00,,,0.00,meteobridge,2013-09-28 08:45:00,
2013-09-28 01:50:00,50.4,42.1,29.98,SE,127,0.0,0.9,73,0.00,,,0.00,meteobridge,2013-09-28 08:50:00,
2013-09-28 01:55:00,50.0,41.4,29.97,SE,126,0.0,0.9,72,0.00,,,0.00,meteobridge,2013-09-28 08:55:00,
2013-09-28 02:01:00,49.8,41.5,29.97,SE,127,0.0,0.0,73,0.00,,,0.00,meteobridge,2013-09-28 09:01:00,
2013-09-28 02:06:00,49.8,41.5,29.97,SE,126,0.0,0.0,73,0.00,,,0.00,meteobridge,2013-09-28 09:06:00,
2013-09-28 02:11:00,49.8,41.9,29.97,SSW,207,0.0,0.0,74,0.00,,,0.00,meteobridge,2013-09-28 09:11:00,
2013-09-28 02:16:00,49.6,41.7,29.97,SSW,205,0.0,0.9,74,0.00,,,0.00,meteobridge,2013-09-28 09:16:00,
2013-09-28 02:21:00,49.6,41.7,29.97,SSW,200,0.0,0.0,74,0.00,,,0.00,meteobridge,2013-09-28 09:21:00,
2013-09-28 02:27:00,49.5,41.9,29.97,SSW,201,0.0,0.9,75,0.00,,,0.00,meteobridge,2013-09-28 09:27:00,
2013-09-28 02:32:00,49.5,41.9,29.97,SSW,200,0.0,0.0,75,0.00,,,0.00,meteobridge,2013-09-28 09:32:00,
2013-09-28 02:37:00,49.1,41.5,29.97,SSW,201,0.0,0.0,75,0.00,,,0.00,meteobridge,2013-09-28 09:37:00,
2013-09-28 02:42:00,49.1,41.9,29.97,SSW,201,0.0,0.9,76,0.00,,,0.00,meteobridge,2013-09-28 09:42:00,
2013-09-28 02:47:00,49.1,41.9,29.97,SSW,200,0.0,0.9,76,0.00,,,0.00,meteobridge,2013-09-28 09:47:00,
2013-09-28 02:52:00,49.1,41.9,29.97,SSW,200,0.0,0.0,76,0.00,,,0.00,meteobridge,2013-09-28 09:52:00,
2013-09-28 02:58:00,48.9,41.7,29.97,SSW,200,0.0,0.0,76,0.00,,,0.00,meteobridge,2013-09-28 09:58:00,
2013-09-28 03:03:00,48.7,41.5,29.97,SSW,201,0.0,0.0,76,0.00,,,0.00,meteobridge,2013-09-28 10:03:00,
2013-09-28 03:08:00,48.6,41.7,29.97,SSW,200,0.0,0.0,77,0.00,,,0.00,meteobridge,2013-09-28 10:08:00,
2013-09-28 03:13:00,48.7,41.9,29.97,SE,132,0.0,0.0,77,0.00,,,0.00,meteobridge,2013-09-28 10:13:00,
2013-09-28 03:18:00,48.9,42.1,29.97,SE,132,0.0,0.0,77,0.00,,,0.00,meteobridge,2013-09-28 10:18:00,
2013-09-28 03:23:00,48.7,41.9,29.97,SE,132,0.0,0.0,77,0.00,,,0.00,meteobridge,2013-09-28 10:23:00,
2013-09-28 03:28:00,48.6,41.7,29.97,SE,132,0.0,0.0,77,0.00,,,0.00,meteobridge,2013-09-28 10:28:00,
2013-09-28 03:33:00,48.6,41.7,29.97,SE,132,0.0,0.0,77,0.00,,,0.00,meteobridge,2013-09-28 10:33:00,
2013-09-28 03:39:00,48.4,41.9,29.96,SE,132,0.0,0.0,78,0.00,,,0.00,meteobridge,2013-09-28 10:39:00,
2013-09-28 03:44:00,48.4,41.9,29.96,South,188,0.0,0.0,78,0.00,,,0.00,meteobridge,2013-09-28 10:44:00,
2013-09-28 03:49:00,48.4,41.9,29.96,SSW,197,0.0,0.0,78,0.00,,,0.00,meteobridge,2013-09-28 10:49:00,
2013-09-28 03:54:00,48.4,41.9,29.96,SSW,197,0.0,0.0,78,0.00,,,0.00,meteobridge,2013-09-28 10:54:00,
2013-09-28 03:59:00,48.2,41.7,29.96,SSW,197,0.0,0.0,78,0.00,,,0.00,meteobridge,2013-09-28 10:59:00,
2013-09-28 04:05:00,48.2,41.7,29.96,SSW,195,0.0,0.0,78,0.00,,,0.00,meteobridge,2013-09-28 11:05:00,
2013-09-28 04:10:00,48.4,41.9,29.97,SSW,195,0.0,0.0,78,0.00,,,0.00,meteobridge,2013-09-28 11:10:00,
2013-09-28 04:15:00,48.4,41.5,29.97,SSW,195,0.0,0.0,77,0.00,,,0.00,meteobridge,2013-09-28 11:15:00,
2013-09-28 04:20:00,48.2,41.7,29.97,SSW,195,0.0,0.0,78,0.00,,,0.00,meteobridge,2013-09-28 11:20:00,
2013-09-28 04:25:00,47.8,41.4,29.97,SSW,195,0.0,0.0,78,0.00,,,0.00,meteobridge,2013-09-28 11:25:00,
2013-09-28 04:30:00,47.5,41.4,29.97,SSW,195,0.0,0.0,79,0.00,,,0.00,meteobridge,2013-09-28 11:30:00,
2013-09-28 04:36:00,47.3,41.4,29.97,SSW,195,0.0,0.0,80,0.00,,,0.00,meteobridge,2013-09-28 11:36:00,
2013-09-28 04:41:00,47.1,41.4,29.97,SSW,195,0.0,0.0,80,0.00,,,0.00,meteobridge,2013-09-28 11:41:00,
2013-09-28 04:46:00,47.1,41.5,29.97,SSW,195,0.0,0.0,81,0.00,,,0.00,meteobridge,2013-09-28 11:46:00,
2013-09-28 04:51:00,47.1,41.4,29.97,SSW,195,0.0,0.0,80,0.00,,,0.00,meteobridge,2013-09-28 11:51:00,
2013-09-28 04:56:00,46.9,41.2,29.97,SSW,195,0.0,0.0,80,0.00,,,0.00,meteobridge,2013-09-28 11:56:00,
2013-09-28 05:01:00,46.8,41.0,29.97,SSW,195,0.0,0.0,80,0.00,,,0.00,meteobridge,2013-09-28 12:01:00,
2013-09-28 05:07:00,46.6,41.0,29.97,SSW,195,0.0,0.0,81,0.00,,,0.00,meteobridge,2013-09-28 12:07:00,
2013-09-28 05:12:00,46.6,41.4,29.97,SSW,195,0.0,0.0,82,0.00,,,0.00,meteobridge,2013-09-28 12:12:00,
2013-09-28 05:17:00,46.8,41.5,29.97,SSW,195,0.0,0.0,82,0.00,,,0.00,meteobridge,2013-09-28 12:17:00,
2013-09-28 05:22:00,46.8,41.2,29.97,SSW,195,0.0,0.0,81,0.00,,,0.00,meteobridge,2013-09-28 12:22:00,
2013-09-28 05:27:00,46.6,41.0,29.97,SSW,195,0.0,0.0,81,0.00,,,0.00,meteobridge,2013-09-28 12:27:00,
2013-09-28 05:32:00,46.4,41.2,29.97,SSW,195,0.0,0.0,82,0.00,,,0.00,meteobridge,2013-09-28 12:32:00,
2013-09-28 05:38:00,46.4,40.8,29.98,SSW,195,0.0,0.0,81,0.00,,,0.00,meteobridge,2013-09-28 12:38:00,
2013-09-28 05:43:00,46.0,40.5,29.98,SSW,195,0.0,0.0,81,0.00,,,0.00,meteobridge,2013-09-28 12:43:00,
2013-09-28 05:48:00,45.9,41.0,29.98,SSW,195,0.0,0.0,83,0.00,,,0.00,meteobridge,2013-09-28 12:48:00,
2013-09-28 05:53:00,45.5,40.3,29.98,SSW,195,0.0,0.0,82,0.00,,,0.00,meteobridge,2013-09-28 12:53:00,
2013-09-28 05:58:00,45.1,40.3,29.98,SSW,195,0.0,0.0,83,0.00,,,0.00,meteobridge,2013-09-28 12:58:00,
2013-09-28 06:03:00,45.1,40.8,29.98,SSW,195,0.0,0.0,85,0.00,,,0.00,meteobridge,2013-09-28 13:03:00,
2013-09-28 06:09:00,45.3,41.0,29.98,SSW,195,0.0,0.0,85,0.00,,,0.00,meteobridge,2013-09-28 13:09:00,
2013-09-28 06:14:00,45.7,41.4,29.98,SSW,196,0.0,0.0,85,0.00,,,0.00,meteobridge,2013-09-28 13:14:00,
2013-09-28 06:19:00,45.7,41.2,29.98,SSW,195,0.0,0.0,84,0.00,,,0.00,meteobridge,2013-09-28 13:19:00,
2013-09-28 06:24:00,45.7,41.2,29.98,SSW,196,0.0,0.0,84,0.00,,,0.00,meteobridge,2013-09-28 13:24:00,
2013-09-28 06:29:00,45.1,40.3,29.98,SSW,195,0.0,0.0,83,0.00,,,0.00,meteobridge,2013-09-28 13:29:00,
2013-09-28 06:34:00,45.1,40.8,29.98,SSW,195,0.0,0.0,85,0.00,,,0.00,meteobridge,2013-09-28 13:34:00,
2013-09-28 06:40:00,45.1,40.8,29.98,SSW,195,0.0,0.0,85,0.00,,,0.00,meteobridge,2013-09-28 13:40:00,
2013-09-28 06:45:00,45.3,41.0,29.98,SSW,195,0.0,0.0,85,0.00,,,0.00,meteobridge,2013-09-28 13:45:00,
2013-09-28 06:50:00,45.5,41.2,29.98,SSW,195,0.0,0.0,85,0.00,,,0.00,meteobridge,2013-09-28 13:50:00,
2013-09-28 06:55:00,45.7,41.2,29.99,SSW,195,0.0,0.0,84,0.00,,,0.00,meteobridge,2013-09-28 13:55:00,
2013-09-28 07:00:00,45.5,41.0,29.99,SSW,195,0.0,0.0,84,0.00,,,0.00,meteobridge,2013-09-28 14:00:00,
2013-09-28 07:06:00,45.3,41.0,29.99,SSW,195,0.0,0.0,85,0.00,,,0.00,meteobridge,2013-09-28 14:06:00,
2013-09-28 07:11:00,45.3,40.8,29.99,SSW,195,0.0,0.0,84,0.00,,,0.00,meteobridge,2013-09-28 14:11:00,
2013-09-28 07:16:00,45.3,41.0,29.99,SSW,195,0.0,0.0,85,0.00,,,0.00,meteobridge,2013-09-28 14:16:00,
2013-09-28 07:21:00,45.1,40.8,30.00,SSW,195,0.0,0.0,85,0.00,,,0.00,meteobridge,2013-09-28 14:21:00,
2013-09-28 07:26:00,44.8,40.5,30.00,SSW,195,0.0,2.0,85,0.00,,,0.00,meteobridge,2013-09-28 14:26:00,
2013-09-28 07:31:00,45.5,41.5,30.00,SSW,195,0.0,0.0,86,0.00,,,0.00,meteobridge,2013-09-28 14:31:00,
2013-09-28 07:37:00,47.1,42.6,30.00,SSW,195,0.0,0.0,84,0.00,,,0.00,meteobridge,2013-09-28 14:37:00,
2013-09-28 07:42:00,48.6,43.0,30.00,SSW,195,0.0,0.0,81,0.00,,,0.00,meteobridge,2013-09-28 14:42:00,
2013-09-28 07:47:00,49.8,43.5,30.00,SSW,195,0.0,0.0,79,0.00,,,0.00,meteobridge,2013-09-28 14:47:00,
2013-09-28 07:52:00,50.4,43.3,30.00,SSW,195,0.0,0.0,77,0.00,,,0.00,meteobridge,2013-09-28 14:52:00,
2013-09-28 07:57:00,51.6,44.6,30.00,SSW,195,0.0,0.0,77,0.00,,,0.00,meteobridge,2013-09-28 14:57:00,
2013-09-28 08:02:00,52.2,43.3,30.00,SSW,195,0.0,0.0,72,0.00,,,0.00,meteobridge,2013-09-28 15:02:00,
2013-09-28 08:08:00,52.0,42.8,30.00,SSW,195,0.0,0.0,71,0.00,,,0.00,meteobridge,2013-09-28 15:08:00,
2013-09-28 08:13:00,52.2,43.0,30.00,SSW,195,0.0,0.0,71,0.00,,,0.00,meteobridge,2013-09-28 15:13:00,
2013-09-28 08:18:00,52.5,43.0,30.00,SSW,195,0.0,0.0,70,0.00,,,0.00,meteobridge,2013-09-28 15:18:00,
2013-09-28 08:23:00,53.1,43.2,30.01,SSW,195,0.0,0.9,69,0.00,,,0.00,meteobridge,2013-09-28 15:23:00,
2013-09-28 08:28:00,53.4,42.8,30.01,NW,319,0.0,0.9,67,0.00,,,0.00,meteobridge,2013-09-28 15:28:00,
2013-09-28 08:33:00,53.8,42.6,30.01,WNW,286,0.0,0.9,66,0.00,,,0.00,meteobridge,2013-09-28 15:33:00,
2013-09-28 08:39:00,54.7,43.2,30.01,WNW,285,0.0,0.0,65,0.00,,,0.00,meteobridge,2013-09-28 15:39:00,
2013-09-28 08:44:00,56.7,43.3,30.01,WNW,285,0.9,0.9,61,0.00,,,0.00,meteobridge,2013-09-28 15:44:00,
2013-09-28 08:49:00,58.3,43.5,30.01,WSW,250,0.9,0.9,58,0.00,,,0.00,meteobridge,2013-09-28 15:49:00,
2013-09-28 08:54:00,58.8,44.1,30.01,SE,142,0.9,0.9,58,0.00,,,0.00,meteobridge,2013-09-28 15:54:00,
2013-09-28 08:59:00,59.4,43.2,30.01,SSE,165,0.0,0.9,55,0.00,,,0.00,meteobridge,2013-09-28 15:59:00,
2013-09-28 09:05:00,60.1,43.9,30.01,SSE,163,0.9,0.9,55,0.00,,,0.00,meteobridge,2013-09-28 16:05:00,
2013-09-28 09:10:00,61.3,44.1,30.01,South,172,0.9,0.9,53,0.00,,,0.00,meteobridge,2013-09-28 16:10:00,
2013-09-28 09:15:00,61.3,43.5,30.01,SSE,164,0.9,2.0,52,0.00,,,0.00,meteobridge,2013-09-28 16:15:00,
2013-09-28 09:20:00,62.2,43.9,30.01,SW,236,2.0,2.0,51,0.00,,,0.00,meteobridge,2013-09-28 16:20:00,
2013-09-28 09:25:00,62.1,44.2,30.02,SSW,206,0.0,0.0,52,0.00,,,0.00,meteobridge,2013-09-28 16:25:00,
2013-09-28 09:30:00,63.0,44.1,30.02,SW,214,0.9,2.0,50,0.00,,,0.00,meteobridge,2013-09-28 16:30:00,
2013-09-28 09:35:00,63.3,44.4,30.02,SW,214,0.9,0.9,50,0.00,,,0.00,meteobridge,2013-09-28 16:35:00,
2013-09-28 09:41:00,64.6,44.4,30.02,SW,217,2.0,2.0,48,0.00,,,0.00,meteobridge,2013-09-28 16:41:00,
2013-09-28 09:46:00,63.9,43.7,30.02,WSW,245,0.9,0.9,48,0.00,,,0.00,meteobridge,2013-09-28 16:46:00,
2013-09-28 09:51:00,64.6,44.4,30.02,SSE,159,0.0,0.9,48,0.00,,,0.00,meteobridge,2013-09-28 16:51:00,
2013-09-28 09:56:00,65.5,45.3,30.02,SW,227,0.9,2.9,48,0.00,,,0.00,meteobridge,2013-09-28 16:56:00,
2013-09-28 10:01:00,65.7,45.0,30.02,SW,222,0.9,2.0,47,0.00,,,0.00,meteobridge,2013-09-28 17:01:00,
2013-09-28 10:06:00,65.7,44.2,30.02,South,183,2.0,2.9,46,0.00,,,0.00,meteobridge,2013-09-28 17:06:00,
2013-09-28 10:12:00,66.4,44.4,30.02,SW,230,2.0,2.9,45,0.00,,,0.00,meteobridge,2013-09-28 17:12:00,
2013-09-28 10:17:00,66.4,43.2,30.02,SW,222,2.0,2.0,43,0.00,,,0.00,meteobridge,2013-09-28 17:17:00,
2013-09-28 10:22:00,66.6,44.6,30.02,SW,227,0.0,2.9,45,0.00,,,0.00,meteobridge,2013-09-28 17:22:00,
2013-09-28 10:27:00,66.9,43.7,30.02,SSW,198,2.0,2.9,43,0.00,,,0.00,meteobridge,2013-09-28 17:27:00,
2013-09-28 10:32:00,67.3,44.1,30.02,WSW,256,0.0,0.9,43,0.00,,,0.00,meteobridge,2013-09-28 17:32:00,
2013-09-28 10:37:00,67.8,43.9,30.02,SSW,203,0.9,2.9,42,0.00,,,0.00,meteobridge,2013-09-28 17:37:00,
2013-09-28 10:43:00,68.4,44.4,30.02,South,173,0.9,2.9,42,0.00,,,0.00,meteobridge,2013-09-28 17:43:00,
2013-09-28 10:48:00,69.4,45.3,30.02,South,169,2.0,2.9,42,0.00,,,0.00,meteobridge,2013-09-28 17:48:00,
2013-09-28 10:53:00,70.0,44.6,30.01,South,181,2.0,2.9,40,0.00,,,0.00,meteobridge,2013-09-28 17:53:00,
2013-09-28 10:58:00,70.3,45.5,30.01,SSW,202,2.0,2.9,41,0.00,,,0.00,meteobridge,2013-09-28 17:58:00,
2013-09-28 11:04:00,70.7,44.6,30.01,SE,146,2.0,2.9,39,0.00,,,0.00,meteobridge,2013-09-28 18:04:00,
2013-09-28 11:09:00,71.2,44.2,30.01,South,186,2.9,2.9,38,0.00,,,0.00,meteobridge,2013-09-28 18:09:00,
2013-09-28 11:14:00,71.8,44.8,30.01,SW,230,4.0,4.9,38,0.00,,,0.00,meteobridge,2013-09-28 18:14:00,
2013-09-28 11:19:00,72.0,45.0,30.01,WSW,252,0.9,2.0,38,0.00,,,0.00,meteobridge,2013-09-28 18:19:00,
2013-09-28 11:24:00,72.7,44.2,30.01,SW,225,2.0,2.0,36,0.00,,,0.00,meteobridge,2013-09-28 18:24:00,
2013-09-28 11:29:00,73.0,44.4,30.01,SSE,165,2.9,2.9,36,0.00,,,0.00,meteobridge,2013-09-28 18:29:00,
2013-09-28 11:35:00,73.6,44.2,30.01,SW,222,2.9,4.0,35,0.00,,,0.00,meteobridge,2013-09-28 18:35:00,
2013-09-28 11:40:00,73.9,44.6,30.01,SW,221,0.9,2.0,35,0.00,,,0.00,meteobridge,2013-09-28 18:40:00,
2013-09-28 11:45:00,74.7,42.8,30.01,South,185,0.9,2.9,32,0.00,,,0.00,meteobridge,2013-09-28 18:45:00,
2013-09-28 11:50:00,75.0,44.8,30.01,SSE,164,2.0,2.9,34,0.00,,,0.00,meteobridge,2013-09-28 18:50:00,
2013-09-28 11:56:00,76.1,44.1,30.00,South,187,4.9,4.9,32,0.00,,,0.00,meteobridge,2013-09-28 18:56:00,
2013-09-28 12:01:00,75.9,44.8,30.00,SSE,161,2.0,4.0,33,0.00,,,0.00,meteobridge,2013-09-28 19:01:00,
2013-09-28 12:06:00,76.5,44.4,30.00,SW,227,2.9,4.0,32,0.00,,,0.00,meteobridge,2013-09-28 19:06:00,
2013-09-28 12:12:00,76.3,43.3,30.00,South,169,2.0,4.9,31,0.00,,,0.00,meteobridge,2013-09-28 19:12:00,
2013-09-28 12:17:00,76.6,42.8,30.00,WSW,250,0.9,2.9,30,0.00,,,0.00,meteobridge,2013-09-28 19:17:00,
2013-09-28 12:22:00,77.4,44.4,29.99,South,171,2.9,2.9,31,0.00,,,0.00,meteobridge,2013-09-28 19:22:00,
2013-09-28 12:27:00,77.4,42.6,29.99,WSW,245,4.0,4.9,29,0.00,,,0.00,meteobridge,2013-09-28 19:27:00,
2013-09-28 12:32:00,77.2,42.4,29.99,SW,230,2.9,2.9,29,0.00,,,0.00,meteobridge,2013-09-28 19:32:00,
2013-09-28 12:37:00,77.0,42.3,29.98,SW,236,2.0,4.9,29,0.00,,,0.00,meteobridge,2013-09-28 19:37:00,
2013-09-28 12:43:00,77.2,43.3,29.98,SE,144,0.9,6.0,30,0.00,,,0.00,meteobridge,2013-09-28 19:43:00,
2013-09-28 12:48:00,78.3,43.3,29.98,SW,233,2.9,6.0,29,0.00,,,0.00,meteobridge,2013-09-28 19:48:00,
2013-09-28 12:53:00,78.3,42.4,29.98,SSE,164,2.0,4.0,28,0.00,,,0.00,meteobridge,2013-09-28 19:53:00,
2013-09-28 12:58:00,78.6,41.9,29.98,SSE,168,2.0,4.0,27,0.00,,,0.00,meteobridge,2013-09-28 19:58:00,
2013-09-28 13:03:00,78.8,42.1,29.98,West,274,2.0,6.9,27,0.00,,,0.00,meteobridge,2013-09-28 20:03:00,
2013-09-28 13:08:00,78.4,42.6,29.98,SW,219,2.9,4.9,28,0.00,,,0.00,meteobridge,2013-09-28 20:08:00,
2013-09-28 13:14:00,79.0,42.1,29.98,West,277,0.9,2.9,27,0.00,,,0.00,meteobridge,2013-09-28 20:14:00,
2013-09-28 13:19:00,78.4,41.7,29.98,WSW,242,2.9,8.9,27,0.00,,,0.00,meteobridge,2013-09-28 20:19:00,
2013-09-28 13:24:00,79.3,40.5,29.97,West,277,2.0,2.9,25,0.00,,,0.00,meteobridge,2013-09-28 20:24:00,
2013-09-28 13:29:00,79.9,41.0,29.97,West,259,0.9,2.9,25,0.00,,,0.00,meteobridge,2013-09-28 20:29:00,
2013-09-28 13:34:00,80.2,40.1,29.97,SW,227,4.0,4.9,24,0.00,,,0.00,meteobridge,2013-09-28 20:34:00,
2013-09-28 13:40:00,80.4,38.1,29.97,NW,305,2.0,4.0,22,0.00,,,0.00,meteobridge,2013-09-28 20:40:00,
2013-09-28 13:45:00,80.1,38.8,29.97,WNW,298,2.9,6.0,23,0.00,,,0.00,meteobridge,2013-09-28 20:45:00,
2013-09-28 13:50:00,80.2,34.2,29.97,SSW,195,6.0,6.9,19,0.00,,,0.00,meteobridge,2013-09-28 20:50:00,
2013-09-28 13:55:00,81.1,38.7,29.96,West,280,4.0,4.0,22,0.00,,,0.00,meteobridge,2013-09-28 20:55:00,
2013-09-28 14:00:00,80.8,38.5,29.96,SW,219,2.9,4.0,22,0.00,,,0.00,meteobridge,2013-09-28 21:00:00,
2013-09-28 14:05:00,81.7,40.3,29.96,SSW,206,0.9,4.0,23,0.00,,,0.00,meteobridge,2013-09-28 21:05:00,
2013-09-28 14:11:00,81.3,39.9,29.95,SE,144,0.0,2.0,23,0.00,,,0.00,meteobridge,2013-09-28 21:11:00,
2013-09-28 14:16:00,81.7,41.4,29.95,SSW,206,2.9,4.0,24,0.00,,,0.00,meteobridge,2013-09-28 21:16:00,
2013-09-28 14:21:00,81.7,39.2,29.95,South,187,4.0,4.9,22,0.00,,,0.00,meteobridge,2013-09-28 21:21:00,
2013-09-28 14:26:00,81.7,40.3,29.94,SW,219,2.0,6.9,23,0.00,,,0.00,meteobridge,2013-09-28 21:26:00,
2013-09-28 14:31:00,81.7,40.3,29.94,SW,225,6.0,8.9,23,0.00,,,0.00,meteobridge,2013-09-28 21:31:00,
2013-09-28 14:36:00,81.9,40.5,29.94,SW,227,0.9,4.0,23,0.00,,,0.00,meteobridge,2013-09-28 21:36:00,
2013-09-28 14:42:00,81.7,40.3,29.94,SE,131,2.9,6.0,23,0.00,,,0.00,meteobridge,2013-09-28 21:42:00,
2013-09-28 14:47:00,82.2,41.9,29.94,SE,144,4.0,8.1,24,0.00,,,0.00,meteobridge,2013-09-28 21:47:00,
2013-09-28 14:52:00,82.0,42.8,29.94,SSW,209,2.9,6.9,25,0.00,,,0.00,meteobridge,2013-09-28 21:52:00,
2013-09-28 14:57:00,82.0,41.7,29.94,SW,221,2.9,10.1,24,0.00,,,0.00,meteobridge,2013-09-28 21:57:00,
2013-09-28 15:02:00,81.7,42.4,29.94,WSW,245,0.9,10.1,25,0.00,,,0.00,meteobridge,2013-09-28 22:02:00,
2013-09-28 15:07:00,81.5,41.2,29.94,SSW,209,4.9,12.1,24,0.00,,,0.00,meteobridge,2013-09-28 22:07:00,
2013-09-28 15:13:00,80.6,41.5,29.94,SW,221,4.9,12.1,25,0.00,,,0.00,meteobridge,2013-09-28 22:13:00,
2013-09-28 15:18:00,80.1,42.1,29.94,SW,236,2.9,6.9,26,0.00,,,0.00,meteobridge,2013-09-28 22:18:00,
2013-09-28 15:23:00,80.8,40.6,29.94,SSW,202,4.9,8.9,24,0.00,,,0.00,meteobridge,2013-09-28 22:23:00,
2013-09-28 15:28:00,80.4,41.4,29.94,SW,223,4.0,6.0,25,0.00,,,0.00,meteobridge,2013-09-28 22:28:00,
2013-09-28 15:33:00,80.2,41.2,29.94,West,260,2.9,10.1,25,0.00,,,0.00,meteobridge,2013-09-28 22:33:00,
2013-09-28 15:38:00,79.9,39.9,29.93,SW,219,0.9,10.1,24,0.00,,,0.00,meteobridge,2013-09-28 22:38:00,
2013-09-28 15:43:00,79.5,40.6,29.93,SSW,199,2.0,4.9,25,0.00,,,0.00,meteobridge,2013-09-28 22:43:00,
2013-09-28 15:49:00,79.3,39.4,29.93,SSW,195,4.0,8.1,24,0.00,,,0.00,meteobridge,2013-09-28 22:49:00,
2013-09-28 15:54:00,79.2,39.2,29.93,SW,221,2.0,8.9,24,0.00,,,0.00,meteobridge,2013-09-28 22:54:00,
2013-09-28 15:59:00,79.2,38.1,29.93,SSE,157,4.0,6.0,23,0.00,,,0.00,meteobridge,2013-09-28 22:59:00,
2013-09-28 16:04:00,79.2,38.1,29.93,SSW,200,2.0,10.1,23,0.00,,,0.00,meteobridge,2013-09-28 23:04:00,
2013-09-28 16:09:00,78.8,39.9,29.93,SSW,209,0.0,4.9,25,0.00,,,0.00,meteobridge,2013-09-28 23:09:00,
2013-09-28 16:14:00,79.2,39.2,29.93,South,175,2.0,6.9,24,0.00,,,0.00,meteobridge,2013-09-28 23:14:00,
2013-09-28 16:20:00,78.8,42.1,29.93,SSW,194,4.9,4.9,27,0.00,,,0.00,meteobridge,2013-09-28 23:20:00,
2013-09-28 16:26:00,79.0,39.2,29.93,South,183,2.0,10.1,24,0.00,,,0.00,meteobridge,2013-09-28 23:26:00,
2013-09-28 16:31:00,79.0,40.1,29.93,SSW,205,2.0,6.0,25,0.00,,,0.00,meteobridge,2013-09-28 23:31:00,
2013-09-28 16:36:00,79.0,41.2,29.93,SE,141,0.9,4.0,26,0.00,,,0.00,meteobridge,2013-09-28 23:36:00,
2013-09-28 16:41:00,78.3,38.5,29.93,SSE,161,4.9,6.0,24,0.00,,,0.00,meteobridge,2013-09-28 23:41:00,
2013-09-28 16:46:00,77.7,40.1,29.93,SW,233,4.0,8.9,26,0.00,,,0.00,meteobridge,2013-09-28 23:46:00,
2013-09-28 16:51:00,77.2,39.6,29.93,SW,233,4.9,6.0,26,0.00,,,0.00,meteobridge,2013-09-28 23:51:00,
2013-09-28 16:57:00,76.5,41.0,29.93,WSW,250,2.9,6.9,28,0.00,,,0.00,meteobridge,2013-09-28 23:57:00,
2013-09-28 17:02:00,76.6,43.7,29.93,SSW,209,2.0,4.0,31,0.00,,,0.00,meteobridge,2013-09-29 00:02:00,
2013-09-28 17:07:00,76.6,46.2,29.93,SSW,206,2.9,4.9,34,0.00,,,0.00,meteobridge,2013-09-29 00:07:00,
2013-09-28 17:12:00,76.5,47.5,29.93,SSE,149,2.0,6.0,36,0.00,,,0.00,meteobridge,2013-09-29 00:12:00,
2013-09-28 17:17:00,75.9,47.8,29.93,SE,146,4.9,6.9,37,0.00,,,0.00,meteobridge,2013-09-29 00:17:00,
2013-09-28 17:22:00,75.6,48.2,29.94,WSW,238,2.0,4.9,38,0.00,,,0.00,meteobridge,2013-09-29 00:22:00,
2013-09-28 17:27:00,75.4,48.0,29.94,South,191,0.9,4.9,38,0.00,,,0.00,meteobridge,2013-09-29 00:27:00,
2013-09-28 17:32:00,75.2,48.6,29.94,SE,141,0.9,4.9,39,0.00,,,0.00,meteobridge,2013-09-29 00:32:00,
2013-09-28 17:37:00,74.7,48.7,29.93,SSE,148,4.0,6.9,40,0.00,,,0.00,meteobridge,2013-09-29 00:37:00,
2013-09-28 17:42:00,73.9,49.5,29.93,South,178,4.0,4.9,42,0.00,,,0.00,meteobridge,2013-09-29 00:42:00,
2013-09-28 17:47:00,73.0,49.3,29.93,South,172,4.9,8.9,43,0.00,,,0.00,meteobridge,2013-09-29 00:47:00,
2013-09-28 17:52:00,72.3,49.8,29.93,SSW,198,0.9,6.9,45,0.00,,,0.00,meteobridge,2013-09-29 00:52:00,
2013-09-28 17:58:00,72.0,49.5,29.93,WSW,245,4.9,6.9,45,0.00,,,0.00,meteobridge,2013-09-29 00:58:00,
2013-09-28 18:03:00,71.4,50.2,29.93,SW,222,0.9,4.0,47,0.00,,,0.00,meteobridge,2013-09-29 01:03:00,
2013-09-28 18:08:00,71.1,50.4,29.93,South,171,0.9,4.9,48,0.00,,,0.00,meteobridge,2013-09-29 01:08:00,
2013-09-28 18:13:00,70.7,51.1,29.93,SSW,192,0.9,2.9,50,0.00,,,0.00,meteobridge,2013-09-29 01:13:00,
2013-09-28 18:18:00,70.3,50.9,29.93,South,180,4.0,4.0,50,0.00,,,0.00,meteobridge,2013-09-29 01:18:00,
2013-09-28 18:23:00,70.0,52.0,29.93,WSW,256,2.0,4.0,53,0.00,,,0.00,meteobridge,2013-09-29 01:23:00,
2013-09-28 18:29:00,69.4,52.2,29.93,SSE,153,0.9,6.0,54,0.00,,,0.00,meteobridge,2013-09-29 01:29:00,
2013-09-28 18:34:00,68.9,52.5,29.93,SW,223,2.0,6.0,56,0.00,,,0.00,meteobridge,2013-09-29 01:34:00,
2013-09-28 18:39:00,68.2,52.9,29.93,SW,227,2.9,4.9,58,0.00,,,0.00,meteobridge,2013-09-29 01:39:00,
2013-09-28 18:45:00,67.6,52.9,29.93,SW,220,0.9,4.0,59,0.00,,,0.00,meteobridge,2013-09-29 01:45:00,
2013-09-28 18:50:00,67.3,52.9,29.93,SW,219,2.9,2.9,60,0.00,,,0.00,meteobridge,2013-09-29 01:50:00,
2013-09-28 18:55:00,66.9,53.1,29.94,WSW,242,0.9,0.9,61,0.00,,,0.00,meteobridge,2013-09-29 01:55:00,
2013-09-28 19:00:00,66.6,53.1,29.94,WSW,252,0.9,0.9,62,0.00,,,0.00,meteobridge,2013-09-29 02:00:00,
2013-09-28 19:05:00,66.4,53.4,29.94,SSW,209,2.0,2.0,63,0.00,,,0.00,meteobridge,2013-09-29 02:05:00,
2013-09-28 19:11:00,66.0,54.0,29.95,WSW,240,0.9,2.0,65,0.00,,,0.00,meteobridge,2013-09-29 02:11:00,
2013-09-28 19:16:00,65.7,54.0,29.95,SW,214,0.9,0.9,66,0.00,,,0.00,meteobridge,2013-09-29 02:16:00,
2013-09-28 19:21:00,65.1,54.3,29.95,WNW,294,0.9,2.0,68,0.00,,,0.00,meteobridge,2013-09-29 02:21:00,
2013-09-28 19:26:00,64.8,54.7,29.96,West,263,0.9,0.9,70,0.00,,,0.00,meteobridge,2013-09-29 02:26:00,
2013-09-28 19:31:00,64.6,55.0,29.96,WNW,291,0.9,2.9,71,0.00,,,0.00,meteobridge,2013-09-29 02:31:00,
2013-09-28 19:36:00,64.2,54.7,29.97,West,279,0.0,0.0,71,0.00,,,0.00,meteobridge,2013-09-29 02:36:00,
2013-09-28 19:42:00,64.0,55.2,29.97,West,267,0.9,2.0,73,0.00,,,0.00,meteobridge,2013-09-29 02:42:00,
2013-09-28 19:47:00,63.9,55.0,29.97,SW,232,0.9,2.0,73,0.00,,,0.00,meteobridge,2013-09-29 02:47:00,
2013-09-28 19:52:00,63.5,55.0,29.97,SW,236,0.0,2.9,74,0.00,,,0.00,meteobridge,2013-09-29 02:52:00,
2013-09-28 19:57:00,63.3,55.2,29.97,South,173,0.9,4.0,75,0.00,,,0.00,meteobridge,2013-09-29 02:57:00,
2013-09-28 20:02:00,63.0,54.9,29.97,SE,142,0.0,0.0,75,0.00,,,0.00,meteobridge,2013-09-29 03:02:00,
2013-09-28 20:08:00,62.8,55.0,29.97,SE,140,0.9,0.9,76,0.00,,,0.00,meteobridge,2013-09-29 03:08:00,
2013-09-28 20:13:00,62.6,55.2,29.97,NW,313,0.9,2.9,77,0.00,,,0.00,meteobridge,2013-09-29 03:13:00,
2013-09-28 20:18:00,62.6,55.2,29.97,NW,317,2.9,4.0,77,0.00,,,0.00,meteobridge,2013-09-29 03:18:00,
2013-09-28 20:23:00,62.6,55.2,29.98,NW,313,0.9,2.0,77,0.00,,,0.00,meteobridge,2013-09-29 03:23:00,
2013-09-28 20:28:00,62.4,55.0,29.98,NW,315,0.9,0.9,77,0.00,,,0.00,meteobridge,2013-09-29 03:28:00,
2013-09-28 20:33:00,62.2,54.9,29.98,NW,314,0.0,0.0,77,0.00,,,0.00,meteobridge,2013-09-29 03:33:00,
2013-09-28 20:39:00,62.1,55.0,29.98,NW,311,0.0,0.0,78,0.00,,,0.00,meteobridge,2013-09-29 03:39:00,
2013-09-28 20:44:00,61.9,54.9,29.98,WNW,284,0.0,0.0,78,0.00,,,0.00,meteobridge,2013-09-29 03:44:00,
2013-09-28 20:49:00,61.7,55.0,29.98,WNW,284,0.0,0.0,79,0.00,,,0.00,meteobridge,2013-09-29 03:49:00,
2013-09-28 20:54:00,61.3,54.9,29.98,WNW,284,0.0,0.0,79,0.00,,,0.00,meteobridge,2013-09-29 03:54:00,
2013-09-28 20:59:00,61.2,54.7,29.98,WNW,284,0.0,0.0,79,0.00,,,0.00,meteobridge,2013-09-29 03:59:00,
2013-09-28 21:01:00,61.2,54.7,29.98,WNW,284,0.0,0.0,79,0.00,,,0.00,meteobridge,2013-09-29 04:01:00,
2013-09-28 21:02:00,61.2,54.9,29.98,WNW,284,0.0,0.0,80,0.00,,,0.00,meteobridge,2013-09-29 04:02:00,
2013-09-28 21:03:00,61.0,54.7,29.98,WNW,284,0.0,0.0,80,0.00,,,0.00,meteobridge,2013-09-29 04:03:00,
2013-09-28 21:04:00,61.0,54.7,29.98,WNW,284,0.0,0.0,80,0.00,,,0.00,meteobridge,2013-09-29 04:04:00,
2013-09-28 21:07:00,61.0,54.7,29.97,WNW,284,0.0,0.0,80,0.00,,,0.00,meteobridge,2013-09-29 04:07:00,
2013-09-28 21:12:00,60.6,54.5,29.97,WNW,284,0.0,0.0,80,0.00,,,0.00,meteobridge,2013-09-29 04:12:00,
2013-09-28 21:17:00,60.3,54.3,29.97,WNW,284,0.0,0.0,81,0.00,,,0.00,meteobridge,2013-09-29 04:17:00,
2013-09-28 21:22:00,60.3,54.7,29.98,WNW,284,0.0,0.0,82,0.00,,,0.00,meteobridge,2013-09-29 04:22:00,
2013-09-28 21:27:00,60.3,54.7,29.98,WNW,284,0.9,0.9,82,0.00,,,0.00,meteobridge,2013-09-29 04:27:00,
2013-09-28 21:32:00,60.1,54.3,29.98,NW,307,2.0,2.9,81,0.00,,,0.00,meteobridge,2013-09-29 04:32:00,
2013-09-28 21:38:00,59.9,54.1,29.98,NW,305,0.0,0.9,81,0.00,,,0.00,meteobridge,2013-09-29 04:38:00,
2013-09-28 21:43:00,59.7,54.1,29.98,NW,305,0.0,0.0,82,0.00,,,0.00,meteobridge,2013-09-29 04:43:00,
2013-09-28 21:48:00,59.5,53.8,29.98,NW,305,0.0,0.0,81,0.00,,,0.00,meteobridge,2013-09-29 04:48:00,
2013-09-28 21:53:00,59.2,54.0,29.98,NW,307,0.0,0.0,83,0.00,,,0.00,meteobridge,2013-09-29 04:53:00,
2013-09-28 21:58:00,59.0,53.8,29.98,NW,305,0.0,0.0,83,0.00,,,0.00,meteobridge,2013-09-29 04:58:00,
2013-09-28 22:03:00,59.0,53.8,29.98,NW,309,0.0,0.0,83,0.00,,,0.00,meteobridge,2013-09-29 05:03:00,
2013-09-28 22:08:00,58.8,54.0,29.99,NW,310,0.0,0.0,84,0.00,,,0.00,meteobridge,2013-09-29 05:08:00,
2013-09-28 22:14:00,59.0,54.1,29.99,NW,304,0.0,0.9,84,0.00,,,0.00,meteobridge,2013-09-29 05:14:00,
2013-09-28 22:19:00,58.8,54.3,29.99,NW,304,0.9,0.9,85,0.00,,,0.00,meteobridge,2013-09-29 05:19:00,
2013-09-28 22:24:00,58.8,54.0,30.00,NW,307,0.0,0.9,84,0.00,,,0.00,meteobridge,2013-09-29 05:24:00,
2013-09-28 22:29:00,58.6,54.1,30.00,NW,307,0.9,0.9,85,0.00,,,0.00,meteobridge,2013-09-29 05:29:00,
2013-09-28 22:34:00,58.6,54.1,30.00,NW,307,0.0,0.0,85,0.00,,,0.00,meteobridge,2013-09-29 05:34:00,
2013-09-28 22:39:00,58.6,54.1,30.00,NW,307,0.0,0.0,85,0.00,,,0.00,meteobridge,2013-09-29 05:39:00,
2013-09-28 22:44:00,58.5,54.0,30.00,NW,306,0.0,0.0,85,0.00,,,0.00,meteobridge,2013-09-29 05:44:00,
2013-09-28 22:49:00,58.5,54.3,30.00,NW,306,0.0,0.9,86,0.00,,,0.00,meteobridge,2013-09-29 05:49:00,
2013-09-28 22:55:00,58.1,54.0,30.00,WNW,294,0.0,0.9,86,0.00,,,0.00,meteobridge,2013-09-29 05:55:00,
2013-09-28 23:00:00,57.7,53.6,30.00,WNW,295,0.0,0.0,86,0.00,,,0.00,meteobridge,2013-09-29 06:00:00,
2013-09-28 23:05:00,57.6,53.8,30.00,East,81,0.0,0.9,87,0.00,,,0.00,meteobridge,2013-09-29 06:05:00,
2013-09-28 23:11:00,57.6,53.8,29.98,East,81,0.9,0.9,87,0.00,,,0.00,meteobridge,2013-09-29 06:11:00,
2013-09-28 23:16:00,57.6,53.8,29.98,NW,311,0.9,2.0,87,0.00,,,0.00,meteobridge,2013-09-29 06:16:00,
2013-09-28 23:21:00,57.6,53.4,29.98,WNW,285,0.9,0.9,86,0.00,,,0.00,meteobridge,2013-09-29 06:21:00,
2013-09-28 23:26:00,57.0,52.9,30.00,West,262,0.9,0.9,86,0.00,,,0.00,meteobridge,2013-09-29 06:26:00,
2013-09-28 23:31:00,56.7,52.9,30.00,WNW,294,0.9,2.0,87,0.00,,,0.00,meteobridge,2013-09-29 06:31:00,
2013-09-28 23:36:00,56.5,52.9,29.99,WNW,294,0.9,0.9,88,0.00,,,0.00,meteobridge,2013-09-29 06:36:00,
2013-09-28 23:42:00,56.3,52.9,29.99,WNW,293,0.0,0.0,88,0.00,,,0.00,meteobridge,2013-09-29 06:42:00,
2013-09-28 23:47:00,56.1,52.7,29.99,WNW,294,0.0,0.9,88,0.00,,,0.00,meteobridge,2013-09-29 06:47:00,
2013-09-28 23:52:00,55.9,52.5,29.99,West,281,0.9,0.9,88,0.00,,,0.00,meteobridge,2013-09-29 06:52:00,
2013-09-28 23:57:00,55.8,52.5,29.99,WNW,283,0.9,0.9,89,0.00,,,0.00,meteobridge,2013-09-29 06:57:00,